Terminal Aerodrome Forecast
Issued by NWS

Home | Current Version | Previous Version | Graphics & Text | Print | Product List | Glossary On
Versions: 1 2 3 4 5 6 7 8 9 10 11 12 13
000
FTUS43 KGRB 032300
TAFAUW
TAF
KAUW 032321Z 0400/0424 21010G18KT P6SM SCT050 BKN090
     FM040300 30005KT 6SM -SHRA SCT040 BKN060
      TEMPO 0403/0405 33025G35KT 3SM TSRA BKN040CB
     FM040700 33005KT P6SM SCT060 BKN100
     FM041500 01007KT P6SM SCT250=

USA.gov is the U.S. government's official web portal to all federal, state and local government web resources and services.